Time;durP1;ratioP1;P1;durP2;ratioP2;P2;SDS_P1;SDS_P2;PMS_P1;PMS_P2;Temp;Humidity;BMP_temperature;BMP_pressure;BME280_temperature;BME280_humidity;BME280_pressure;Samples;Min_cycle;Max_cycle;Signal;HPM_P1;HPM_P2
2023/03/09 00:01:36;;;;;;;0.60;0.40;;;;;;;9.04;57.84;100872.78;5053279;28;20049;-70
2023/03/09 00:04:05;;;;;;;1.08;0.20;;;;;;;8.92;57.65;100868.03;5051399;28;20044;-70
2023/03/09 00:06:33;;;;;;;0.55;0.30;;;;;;;8.88;59.71;100867.03;5046243;28;20110;-70
2023/03/09 00:09:03;;;;;;;0.13;0.10;;;;;;;8.86;59.14;100868.66;5051121;28;20141;-71
2023/03/09 00:11:33;;;;;;;0.32;0.30;;;;;;;8.86;58.34;100863.50;5048078;28;20051;-71
2023/03/09 00:14:02;;;;;;;0.60;0.30;;;;;;;8.98;58.51;100871.72;5050060;28;20432;-70
2023/03/09 00:16:31;;;;;;;0.77;0.20;;;;;;;8.83;55.42;100876.28;5045384;28;20117;-71
2023/03/09 00:19:00;;;;;;;0.30;0.10;;;;;;;8.72;56.82;100865.56;5049155;28;20037;-71
2023/03/09 00:21:36;;;;;;;0.43;0.30;;;;;;;8.71;56.76;100875.84;5043867;28;20568;-70
2023/03/09 00:24:07;;;;;;;0.52;0.40;;;;;;;8.73;56.75;100869.03;5048037;28;20336;-70
2023/03/09 00:26:39;;;;;;;0.22;0.20;;;;;;;8.64;59.07;100861.81;5049210;28;20055;-72
2023/03/09 00:29:08;;;;;;;5.78;0.93;;;;;;;8.54;57.18;100863.16;5045617;28;20119;-70
2023/03/09 00:31:37;;;;;;;0.52;0.45;;;;;;;8.55;57.97;100864.91;5024283;28;20091;-70
2023/03/09 00:34:06;;;;;;;0.75;0.20;;;;;;;8.54;59.45;100860.59;5024763;28;20053;-70
2023/03/09 00:36:35;;;;;;;0.95;0.45;;;;;;;8.57;60.02;100859.81;5021913;28;20049;-70
2023/03/09 00:39:04;;;;;;;0.40;0.30;;;;;;;8.56;59.92;100861.50;5027802;28;20045;-70
2023/03/09 00:41:33;;;;;;;0.65;0.30;;;;;;;8.44;60.54;100858.44;5023711;28;20049;-71
2023/03/09 00:44:05;;;;;;;1.63;0.60;;;;;;;8.47;59.68;100860.25;5033467;28;20418;-71
2023/03/09 00:46:34;;;;;;;1.35;0.60;;;;;;;8.48;60.51;100860.31;5026679;28;20507;-72
2023/03/09 00:49:06;;;;;;;0.85;0.50;;;;;;;8.39;62.21;100854.78;5034319;28;20063;-70
2023/03/09 00:51:36;;;;;;;0.32;0.32;;;;;;;8.37;64.55;100866.72;5027343;28;20058;-71
2023/03/09 00:54:05;;;;;;;0.30;0.30;;;;;;;8.37;66.79;100866.72;5027917;28;20056;-72
2023/03/09 00:56:33;;;;;;;0.40;0.40;;;;;;;8.37;66.83;100867.59;5034212;28;20503;-71
2023/03/09 00:59:04;;;;;;;0.30;0.30;;;;;;;8.37;66.73;100866.72;5036072;28;20529;-70
2023/03/09 01:01:32;;;;;;;0.30;0.28;;;;;;;8.39;67.94;100871.13;5028513;28;20056;-70
2023/03/09 01:04:01;;;;;;;0.35;0.10;;;;;;;8.33;65.97;100864.84;5026779;28;20053;-71
2023/03/09 01:06:29;;;;;;;1.13;0.40;;;;;;;8.32;68.69;100868.25;5029522;28;20537;-71
2023/03/09 01:08:58;;;;;;;0.82;0.40;;;;;;;8.28;68.01;100863.78;5031363;28;20189;-71
2023/03/09 01:11:27;;;;;;;0.77;0.22;;;;;;;8.23;67.28;100858.44;5035302;28;20160;-70
2023/03/09 01:13:56;;;;;;;0.43;0.30;;;;;;;8.19;67.89;100862.56;5029543;28;20044;-71
2023/03/09 01:16:26;;;;;;;3.33;0.40;;;;;;;8.17;69.14;100861.63;5035764;28;20106;-70
2023/03/09 01:18:55;;;;;;;0.45;0.35;;;;;;;8.15;68.84;100860.72;5033381;28;20049;-70
2023/03/09 01:21:23;;;;;;;0.77;0.47;;;;;;;8.12;69.28;100863.13;5033090;28;20103;-70
2023/03/09 01:23:52;;;;;;;0.75;0.30;;;;;;;8.09;68.62;100857.00;5027905;28;20049;-71
2023/03/09 01:26:21;;;;;;;0.80;0.50;;;;;;;8.06;69.21;100862.88;5025084;28;20047;-71
2023/03/09 01:28:49;;;;;;;0.22;0.15;;;;;;;8.06;69.71;100854.28;5037416;27;20483;-71
2023/03/09 01:31:18;;;;;;;1.88;0.32;;;;;;;8.08;70.13;100861.25;5048258;28;20399;-71
2023/03/09 01:33:49;;;;;;;0.90;0.45;;;;;;;8.07;68.31;100856.06;5048512;28;20123;-70
2023/03/09 01:36:20;;;;;;;0.55;0.40;;;;;;;8.01;68.76;100855.78;5052947;28;20048;-70
2023/03/09 01:38:56;;;;;;;0.43;0.17;;;;;;;8.01;71.97;100859.25;5060277;28;20056;-73
2023/03/09 01:41:24;;;;;;;0.98;0.50;;;;;;;7.90;69.31;100855.34;5049368;28;20154;-72
2023/03/09 01:43:53;;;;;;;1.02;0.55;;;;;;;7.84;72.57;100873.13;5044852;28;20965;-74
2023/03/09 01:46:41;;;;;;;2.25;0.40;;;;;;;7.74;76.08;100887.28;5055626;28;20057;-76
2023/03/09 01:49:16;;;;;;;1.38;0.50;;;;;;;7.69;77.78;100883.66;5049801;28;20056;-74
2023/03/09 01:51:53;;;;;;;2.08;0.45;;;;;;;7.63;78.67;100884.28;5050556;28;20045;-78
2023/03/09 01:54:25;;;;;;;0.57;0.38;;;;;;;7.63;79.43;100888.53;5052839;28;20498;-77
2023/03/09 01:56:56;;;;;;;0.57;0.32;;;;;;;7.57;79.71;100883.13;5051182;28;20060;-79
2023/03/09 01:59:29;;;;;;;0.20;0.20;;;;;;;7.39;78.57;100896.94;5055382;28;20514;-81
2023/03/09 02:01:58;;;;;;;0.38;0.28;;;;;;;7.23;83.03;100902.22;5045162;28;21231;-74
2023/03/09 02:04:35;;;;;;;0.32;0.25;;;;;;;7.10;83.44;100903.34;5044951;28;20045;-74
2023/03/09 02:07:05;;;;;;;0.22;0.20;;;;;;;7.04;83.88;100901.38;5050916;28;20060;-74
2023/03/09 02:09:39;;;;;;;0.40;0.20;;;;;;;6.98;83.52;100905.34;5048470;28;20139;-76
2023/03/09 02:12:09;;;;;;;0.70;0.25;;;;;;;6.80;83.56;100898.53;5053142;28;20107;-76
2023/03/09 02:14:38;;;;;;;0.35;0.30;;;;;;;6.75;85.83;100901.72;5046988;28;20041;-77
2023/03/09 02:17:07;;;;;;;0.73;0.50;;;;;;;6.69;85.90;100903.19;5048804;28;20530;-76
2023/03/09 02:20:01;;;;;;;0.68;0.47;;;;;;;6.63;87.23;100904.59;5053211;28;20053;-76
2023/03/09 02:22:29;;;;;;;1.48;0.77;;;;;;;6.62;89.48;100915.66;5046138;28;20057;-75
2023/03/09 02:25:10;;;;;;;1.40;0.60;;;;;;;6.59;89.16;100916.41;5052029;28;20041;-76
2023/03/09 02:27:40;;;;;;;0.60;0.32;;;;;;;6.61;94.14;100916.47;5053324;28;20057;-75
2023/03/09 02:30:11;;;;;;;0.40;0.38;;;;;;;6.61;95.08;100926.75;5050922;28;20052;-75
2023/03/09 02:32:40;;;;;;;0.52;0.30;;;;;;;6.63;94.80;100923.47;5047170;28;20041;-75
2023/03/09 02:35:09;;;;;;;0.20;0.20;;;;;;;6.62;92.67;100928.50;5051938;28;20511;-74
2023/03/09 02:37:40;;;;;;;0.52;0.43;;;;;;;6.54;93.63;100927.28;5055682;28;20692;-76
2023/03/09 02:40:14;;;;;;;0.43;0.20;;;;;;;6.47;94.39;100932.13;5049720;28;20124;-75
2023/03/09 02:42:46;;;;;;;0.22;0.20;;;;;;;6.39;94.39;100937.69;5052118;28;20049;-76
2023/03/09 02:45:17;;;;;;;0.30;0.25;;;;;;;6.35;95.88;100933.22;5046295;28;20046;-75
2023/03/09 02:47:46;;;;;;;7.03;0.50;;;;;;;6.32;98.29;100936.50;5053158;28;20094;-77
2023/03/09 02:50:15;;;;;;;0.28;0.22;;;;;;;6.30;96.63;100943.28;5052278;28;20061;-74
2023/03/09 02:52:43;;;;;;;0.55;0.50;;;;;;;6.28;96.89;100950.03;5051611;28;20045;-73
2023/03/09 02:55:12;;;;;;;0.55;0.20;;;;;;;6.27;96.17;100943.09;5053859;28;20045;-73
2023/03/09 02:57:41;;;;;;;0.45;0.22;;;;;;;6.20;96.42;100928.19;5049559;28;20045;-72
2023/03/09 03:00:13;;;;;;;0.93;0.50;;;;;;;6.26;98.22;100951.63;5050106;28;20107;-74
2023/03/09 03:02:42;;;;;;;0.68;0.40;;;;;;;6.25;96.24;100950.75;5048744;28;20134;-75
2023/03/09 03:05:11;;;;;;;0.52;0.38;;;;;;;6.25;98.44;100952.41;5051318;28;20084;-76
2023/03/09 03:07:40;;;;;;;0.45;0.30;;;;;;;6.25;97.79;100950.75;5052690;28;20041;-74
2023/03/09 03:10:09;;;;;;;0.77;0.25;;;;;;;6.21;96.62;100948.84;5053077;28;20524;-75
2023/03/09 03:12:38;;;;;;;0.35;0.30;;;;;;;6.21;96.10;100955.66;5041776;28;20682;-76
2023/03/09 03:15:08;;;;;;;0.38;0.30;;;;;;;6.19;96.27;100954.69;5047470;28;20522;-76
2023/03/09 03:17:38;;;;;;;0.30;0.17;;;;;;;6.19;98.40;100957.28;5049641;28;20518;-78
2023/03/09 03:20:12;;;;;;;1.25;0.60;;;;;;;6.17;97.71;100954.63;5053193;28;20052;-76
2023/03/09 03:22:40;;;;;;;0.65;0.30;;;;;;;6.15;98.01;100950.22;5047842;28;20056;-76
2023/03/09 03:25:09;;;;;;;0.98;0.22;;;;;;;6.19;99.28;100954.69;5049764;28;20115;-75
2023/03/09 03:27:38;;;;;;;0.95;0.20;;;;;;;6.17;98.68;100956.31;5045548;28;20410;-76
2023/03/09 03:30:07;;;;;;;0.60;0.30;;;;;;;6.17;98.12;100961.44;5045429;27;20110;-77
2023/03/09 03:32:38;;;;;;;0.30;0.17;;;;;;;6.18;98.50;100958.06;5043169;28;20048;-75
2023/03/09 03:35:07;;;;;;;0.40;0.28;;;;;;;6.19;98.35;100949.56;5048575;28;20048;-77
2023/03/09 03:37:36;;;;;;;1.10;0.45;;;;;;;6.20;97.87;100951.31;5045619;28;20114;-74
2023/03/09 03:40:08;;;;;;;0.60;0.32;;;;;;;6.23;98.59;100961.72;5044316;28;20076;-73
2023/03/09 03:42:36;;;;;;;0.20;0.13;;;;;;;6.24;97.01;100961.81;5049770;28;20548;-74
2023/03/09 03:45:06;;;;;;;0.40;0.40;;;;;;;6.26;96.65;100961.91;5045120;28;20042;-74
2023/03/09 03:47:38;;;;;;;0.25;0.25;;;;;;;6.31;98.18;100959.56;5052534;28;20051;-72
2023/03/09 03:50:09;;;;;;;0.32;0.15;;;;;;;6.27;95.99;100961.97;5049566;28;20692;-74
2023/03/09 03:52:38;;;;;;;0.38;0.20;;;;;;;6.29;97.46;100959.47;5050713;28;20072;-74
2023/03/09 03:55:08;;;;;;;0.47;0.30;;;;;;;6.31;99.54;100964.72;5048066;28;20054;-76
2023/03/09 03:57:36;;;;;;;2.42;0.40;;;;;;;6.29;100.00;100967.19;5049993;28;20049;-75
2023/03/09 04:00:09;;;;;;;0.60;0.28;;;;;;;6.26;98.65;100969.63;5045167;28;20049;-75
2023/03/09 04:02:38;;;;;;;0.52;0.28;;;;;;;6.25;100.00;100970.41;5055954;28;20076;-74
2023/03/09 04:05:09;;;;;;;1.27;0.38;;;;;;;6.23;100.00;100972.91;5049890;28;20063;-80
2023/03/09 04:07:38;;;;;;;0.30;0.22;;;;;;;6.18;100.00;100974.34;5046734;28;20387;-77
2023/03/09 04:10:08;;;;;;;0.30;0.30;;;;;;;6.16;100.00;100964.81;5047691;28;20505;-76
2023/03/09 04:12:37;;;;;;;0.85;0.50;;;;;;;6.17;100.00;100971.72;5046274;28;20080;-73
2023/03/09 04:15:06;;;;;;;0.60;0.40;;;;;;;6.18;100.00;100983.75;5051388;28;20042;-78
2023/03/09 04:17:35;;;;;;;0.20;0.20;;;;;;;6.17;99.51;100976.88;5052220;28;20057;-77
2023/03/09 04:20:17;;;;;;;0.20;0.15;;;;;;;6.13;98.35;100980.06;5045100;28;20591;-77
2023/03/09 04:22:46;;;;;;;0.20;0.20;;;;;;;6.10;100.00;100972.22;5046576;28;20490;-77
2023/03/09 04:25:15;;;;;;;0.15;0.10;;;;;;;6.07;100.00;100971.25;5043036;28;20057;-74
2023/03/09 04:27:43;;;;;;;0.40;0.20;;;;;;;6.09;98.49;100973.88;5047509;28;20056;-74
2023/03/09 04:30:25;;;;;;;0.75;0.30;;;;;;;6.07;99.34;100968.69;5048811;28;20060;-73
2023/03/09 04:32:53;;;;;;;0.63;0.30;;;;;;;6.04;99.02;100970.22;5043502;28;20637;-74
2023/03/09 04:35:23;;;;;;;0.55;0.20;;;;;;;6.03;98.47;100969.34;5053256;28;20060;-73
2023/03/09 04:37:53;;;;;;;0.22;0.20;;;;;;;5.96;97.36;100974.09;5048399;28;20055;-74
2023/03/09 04:40:21;;;;;;;1.05;0.40;;;;;;;5.89;97.63;100970.28;5044767;28;20589;-74
2023/03/09 04:42:50;;;;;;;0.20;0.10;;;;;;;5.80;97.13;100967.25;5049068;28;20061;-73
2023/03/09 04:45:19;;;;;;;1.15;0.40;;;;;;;5.77;98.27;100954.22;5045759;28;20049;-74
2023/03/09 04:47:47;;;;;;;0.15;0.15;;;;;;;5.82;99.63;100965.63;5046077;28;20487;-73
2023/03/09 04:50:16;;;;;;;0.40;0.30;;;;;;;5.81;99.30;100956.16;5050548;28;20498;-73
2023/03/09 04:52:46;;;;;;;0.30;0.10;;;;;;;5.71;100.00;100948.78;5045444;28;20049;-74
2023/03/09 04:55:15;;;;;;;0.30;0.10;;;;;;;5.67;99.49;100946.03;5043885;28;20490;-74
2023/03/09 04:57:43;;;;;;;0.00;0.00;;;;;;;5.65;98.49;100955.34;5043145;28;20057;-75
2023/03/09 05:00:13;;;;;;;0.13;0.10;;;;;;;5.66;97.31;100958.81;5046529;28;20053;-76
2023/03/09 05:02:42;;;;;;;0.45;0.40;;;;;;;5.61;99.43;100952.53;5047943;28;20459;-73
2023/03/09 05:05:12;;;;;;;0.32;0.15;;;;;;;5.62;99.33;100950.06;5041980;28;20045;-76
2023/03/09 05:07:41;;;;;;;0.10;0.10;;;;;;;5.63;98.73;100950.94;5041219;28;20048;-76
2023/03/09 05:10:12;;;;;;;0.10;0.10;;;;;;;5.66;98.86;100940.84;5048393;28;20052;-75
2023/03/09 05:12:41;;;;;;;0.25;0.10;;;;;;;5.69;99.95;100950.38;5041443;28;20462;-75
2023/03/09 05:15:11;;;;;;;1.00;0.17;;;;;;;5.72;100.00;100956.56;5044534;28;20057;-74
2023/03/09 05:17:40;;;;;;;0.22;0.20;;;;;;;5.77;100.00;100949.09;5049693;28;20111;-73
2023/03/09 05:20:10;;;;;;;0.13;0.13;;;;;;;5.78;100.00;100951.75;5038931;28;20451;-75
2023/03/09 05:22:39;;;;;;;2.35;0.22;;;;;;;5.73;99.44;100954.88;5048372;28;20445;-74
2023/03/09 05:25:11;;;;;;;0.10;0.00;;;;;;;5.73;100.00;100950.63;5045853;28;20055;-74
2023/03/09 05:27:39;;;;;;;0.20;0.10;;;;;;;5.63;98.34;100953.50;5042802;28;20053;-76
2023/03/09 05:30:09;;;;;;;0.15;0.15;;;;;;;5.59;98.20;100955.03;5045693;28;20511;-75
2023/03/09 05:32:37;;;;;;;0.10;0.10;;;;;;;5.60;100.00;100951.66;5038035;28;20509;-76
2023/03/09 05:35:07;;;;;;;0.50;0.20;;;;;;;5.62;100.00;100949.19;5044559;28;20064;-75
2023/03/09 05:37:36;;;;;;;0.30;0.20;;;;;;;5.65;100.00;100960.47;5034841;28;20060;-74
2023/03/09 05:40:06;;;;;;;0.10;0.10;;;;;;;5.67;100.00;100948.59;5050472;28;20539;-75
2023/03/09 05:42:36;;;;;;;0.50;0.22;;;;;;;5.72;100.00;100951.41;5042182;28;20049;-77
2023/03/09 05:45:05;;;;;;;0.10;0.10;;;;;;;5.74;100.00;100954.06;5047510;28;20060;-78
2023/03/09 05:47:33;;;;;;;0.30;0.20;;;;;;;5.75;100.00;100948.13;5045173;28;20612;-77
2023/03/09 05:50:02;;;;;;;0.38;0.20;;;;;;;5.76;100.00;100942.19;5039765;28;20709;-76
2023/03/09 05:52:31;;;;;;;0.80;0.15;;;;;;;5.75;99.82;100943.88;5049615;28;20053;-74
2023/03/09 05:54:59;;;;;;;0.30;0.30;;;;;;;5.76;100.00;100942.19;5042364;28;20060;-79
2023/03/09 05:57:28;;;;;;;0.40;0.10;;;;;;;5.77;100.00;100943.94;5048781;28;20048;-74
2023/03/09 05:59:58;;;;;;;0.47;0.28;;;;;;;5.78;99.83;100945.72;5053933;28;20107;-73
2023/03/09 06:02:26;;;;;;;0.55;0.10;;;;;;;5.77;99.33;100939.72;5055508;28;20071;-72
2023/03/09 06:04:55;;;;;;;0.43;0.17;;;;;;;5.75;98.21;100940.41;5047139;28;20045;-72
2023/03/09 06:07:23;;;;;;;0.10;0.10;;;;;;;5.72;98.78;100930.00;5042295;28;20534;-72
2023/03/09 06:09:52;;;;;;;0.40;0.20;;;;;;;5.76;99.15;100929.38;5047853;28;20095;-73
2023/03/09 06:12:22;;;;;;;0.10;0.10;;;;;;;5.76;99.58;100937.06;5053771;28;20063;-72
2023/03/09 06:14:52;;;;;;;0.10;0.10;;;;;;;5.78;99.92;100932.91;5048810;28;20044;-72
2023/03/09 06:17:22;;;;;;;0.10;0.08;;;;;;;5.78;98.87;100935.47;5051002;28;20127;-73
2023/03/09 06:19:50;;;;;;;0.20;0.20;;;;;;;5.79;99.26;100937.22;5051081;28;20053;-72
2023/03/09 06:22:19;;;;;;;0.20;0.10;;;;;;;5.77;97.28;100928.53;5051679;28;20045;-72
2023/03/09 06:24:48;;;;;;;2.05;0.10;;;;;;;5.79;98.07;100929.50;5052956;28;20048;-73
2023/03/09 06:27:16;;;;;;;0.10;0.10;;;;;;;5.81;96.66;100933.03;5048760;28;20042;-72
2023/03/09 06:29:44;;;;;;;0.52;0.30;;;;;;;5.77;96.49;100932.03;5051078;28;20554;-73
2023/03/09 06:32:13;;;;;;;0.03;0.00;;;;;;;5.77;94.69;100925.97;5045850;28;20110;-73
2023/03/09 06:34:43;;;;;;;0.20;0.10;;;;;;;5.80;93.35;100932.16;5050616;28;20045;-72
2023/03/09 06:37:12;;;;;;;0.50;0.13;;;;;;;5.84;94.92;100925.47;5048657;28;20056;-72
2023/03/09 06:39:40;;;;;;;0.05;0.05;;;;;;;5.84;95.07;100921.25;5045517;28;20049;-72
2023/03/09 06:42:09;;;;;;;1.48;0.05;;;;;;;5.84;94.10;100921.25;5045596;28;20056;-71
2023/03/09 06:44:38;;;;;;;2.28;0.00;;;;;;;5.86;93.93;100919.66;5041097;28;20056;-71
2023/03/09 06:47:06;;;;;;;0.25;0.10;;;;;;;5.86;94.03;100929.00;5050154;28;20623;-72
2023/03/09 06:49:35;;;;;;;0.30;0.00;;;;;;;5.78;91.93;100904.66;5049953;28;20121;-72
2023/03/09 06:52:05;;;;;;;0.45;0.00;;;;;;;5.86;92.89;100913.59;5058719;28;20049;-73
2023/03/09 06:54:34;;;;;;;0.98;0.20;;;;;;;5.87;92.95;100910.25;5055047;28;20684;-74
2023/03/09 06:57:02;;;;;;;0.30;0.10;;;;;;;5.88;89.97;100912.88;5050747;28;20036;-71
2023/03/09 06:59:31;;;;;;;0.10;0.10;;;;;;;5.88;89.78;100914.56;5050047;28;20497;-72
2023/03/09 07:02:00;;;;;;;0.10;0.10;;;;;;;5.90;90.59;100910.41;5051327;28;20053;-71
2023/03/09 07:04:29;;;;;;;0.55;0.30;;;;;;;5.92;88.94;100908.78;5047052;28;20136;-72
2023/03/09 07:06:57;;;;;;;0.30;0.10;;;;;;;5.93;88.53;100909.66;5049838;28;20567;-71
2023/03/09 07:09:27;;;;;;;0.00;0.00;;;;;;;5.92;87.77;100910.47;5050822;28;20592;-73
2023/03/09 07:11:56;;;;;;;0.10;0.08;;;;;;;5.84;81.76;100903.28;5042428;28;20080;-73
2023/03/09 07:14:24;;;;;;;1.25;0.13;;;;;;;5.86;80.66;100899.09;5051929;28;20045;-72
2023/03/09 07:16:53;;;;;;;0.52;0.13;;;;;;;5.89;82.23;100900.94;5045969;28;20049;-72
2023/03/09 07:19:22;;;;;;;0.13;0.10;;;;;;;5.91;79.90;100893.28;5053629;28;20053;-72
2023/03/09 07:21:51;;;;;;;0.70;0.22;;;;;;;5.90;79.97;100889.84;5055468;28;20106;-73
2023/03/09 07:24:19;;;;;;;0.77;0.22;;;;;;;5.94;81.19;100889.25;5052428;28;20049;-72
2023/03/09 07:26:50;;;;;;;0.10;0.10;;;;;;;5.95;85.23;100883.28;5050267;28;20041;-72
2023/03/09 07:29:19;;;;;;;0.38;0.20;;;;;;;5.95;84.53;100877.28;5049858;28;20045;-72
2023/03/09 07:31:48;;;;;;;0.10;0.10;;;;;;;5.95;85.85;100880.72;5048957;28;20530;-72
2023/03/09 07:34:16;;;;;;;0.17;0.10;;;;;;;5.89;80.24;100862.41;5046602;28;20056;-72
2023/03/09 07:36:52;;;;;;;0.03;0.03;;;;;;;5.97;82.62;100866.28;5050346;28;20052;-72
2023/03/09 07:39:21;;;;;;;0.30;0.30;;;;;;;5.97;84.98;100866.28;5047595;28;20297;-72
2023/03/09 07:41:51;;;;;;;0.20;0.10;;;;;;;5.99;82.45;100858.66;5049661;28;20076;-72
2023/03/09 07:44:19;;;;;;;0.30;0.20;;;;;;;6.00;83.89;100856.16;5045630;28;20735;-73
2023/03/09 07:46:48;;;;;;;0.13;0.13;;;;;;;5.99;80.17;100853.50;5051487;28;20041;-72
2023/03/09 07:49:16;;;;;;;0.13;0.00;;;;;;;6.00;76.69;100848.47;5052739;28;20069;-72
2023/03/09 07:51:45;;;;;;;0.20;0.10;;;;;;;6.03;79.71;100851.16;5041830;28;20044;-72
2023/03/09 07:54:14;;;;;;;0.10;0.08;;;;;;;6.03;79.91;100850.28;5046391;28;20553;-72
2023/03/09 07:56:43;;;;;;;1.20;0.00;;;;;;;6.06;83.61;100850.44;5046324;28;20681;-72
2023/03/09 07:59:17;;;;;;;0.73;0.28;;;;;;;6.07;86.50;100847.09;5050631;28;20726;-72
2023/03/09 08:01:46;;;;;;;1.15;0.20;;;;;;;6.02;84.67;100859.66;5046693;28;20057;-72
2023/03/09 08:04:16;;;;;;;0.30;0.10;;;;;;;5.99;79.22;100859.53;5051167;28;20045;-72
2023/03/09 08:06:45;;;;;;;0.17;0.13;;;;;;;6.03;80.49;100850.28;5050394;28;20045;-71
2023/03/09 08:09:16;;;;;;;0.17;0.13;;;;;;;6.02;83.22;100851.97;5050461;28;20048;-72
2023/03/09 08:11:45;;;;;;;0.10;0.10;;;;;;;6.04;83.00;100852.91;5047464;28;20136;-72
2023/03/09 08:14:14;;;;;;;0.75;0.15;;;;;;;6.08;83.70;100849.69;5048004;28;20047;-72
2023/03/09 08:16:44;;;;;;;0.20;0.10;;;;;;;6.14;82.31;100848.22;5048112;28;20499;-72
2023/03/09 08:19:12;;;;;;;0.40;0.10;;;;;;;6.19;82.32;100849.34;5046251;28;20801;-72
2023/03/09 08:21:41;;;;;;;0.20;0.03;;;;;;;6.20;82.00;100843.41;5047049;28;20053;-72
2023/03/09 08:24:09;;;;;;;0.65;0.22;;;;;;;6.18;79.05;100838.19;5050683;28;20120;-72
2023/03/09 08:26:38;;;;;;;0.63;0.20;;;;;;;6.12;76.34;100842.16;5047134;28;20053;-73
2023/03/09 08:29:06;;;;;;;0.15;0.10;;;;;;;6.10;75.85;100851.47;5045878;28;20044;-72
2023/03/09 08:31:36;;;;;;;0.08;0.08;;;;;;;6.11;75.39;100848.97;5045034;28;20053;-72
2023/03/09 08:34:06;;;;;;;0.10;0.00;;;;;;;6.10;76.40;100852.34;5047268;28;20110;-71
2023/03/09 08:36:35;;;;;;;0.00;0.00;;;;;;;6.07;74.04;100858.22;5047631;28;20049;-71
2023/03/09 08:39:04;;;;;;;0.10;0.10;;;;;;;6.07;72.72;100852.22;5044289;28;20580;-72
2023/03/09 08:41:32;;;;;;;0.20;0.10;;;;;;;6.08;73.46;100865.13;5046176;28;20060;-72
2023/03/09 08:44:01;;;;;;;0.10;0.10;;;;;;;6.08;75.57;100870.25;5044623;28;20049;-73
2023/03/09 08:46:29;;;;;;;0.10;0.10;;;;;;;6.04;72.55;100862.31;5043386;28;20048;-72
2023/03/09 08:48:59;;;;;;;0.32;0.28;;;;;;;5.97;72.77;100866.28;5048545;28;20166;-72
2023/03/09 08:51:29;;;;;;;0.05;0.00;;;;;;;5.94;73.42;100870.34;5052487;28;20045;-72
2023/03/09 08:53:58;;;;;;;0.98;0.30;;;;;;;5.90;73.65;100874.44;5048449;28;20048;-72
2023/03/09 08:56:26;;;;;;;0.00;0.00;;;;;;;5.87;74.03;100849.50;5043514;28;20074;-72
2023/03/09 08:58:55;;;;;;;0.47;0.20;;;;;;;5.85;75.24;100847.66;5044309;28;20206;-72
2023/03/09 09:01:23;;;;;;;0.22;0.08;;;;;;;5.84;77.16;100851.91;5044210;28;20049;-73
2023/03/09 09:03:52;;;;;;;0.38;0.10;;;;;;;5.86;77.54;100846.84;5045155;28;20057;-72
2023/03/09 09:06:20;;;;;;;0.10;0.10;;;;;;;5.86;78.48;100852.88;5044554;28;20145;-71
2023/03/09 09:08:50;;;;;;;0.10;0.10;;;;;;;5.85;78.57;100845.09;5045183;28;20044;-72
2023/03/09 09:11:19;;;;;;;0.00;0.00;;;;;;;5.84;77.47;100848.44;5049368;28;20044;-72
2023/03/09 09:13:48;;;;;;;0.28;0.10;;;;;;;5.84;79.07;100843.31;5050356;28;20045;-71
2023/03/09 09:16:17;;;;;;;0.32;0.08;;;;;;;5.86;79.29;100829.78;5045860;28;20076;-71
2023/03/09 09:18:46;;;;;;;0.00;0.00;;;;;;;5.86;76.98;100828.88;5046248;28;20049;-72
2023/03/09 09:21:16;;;;;;;0.52;0.20;;;;;;;5.87;79.69;100828.06;5038068;28;20501;-71
2023/03/09 09:23:46;;;;;;;0.15;0.08;;;;;;;5.91;82.17;100821.38;5040337;28;20044;-71
2023/03/09 09:26:16;;;;;;;1.65;0.30;;;;;;;5.94;83.38;100819.00;5042946;28;20041;-71
2023/03/09 09:28:46;;;;;;;0.15;0.15;;;;;;;5.97;83.38;100822.59;5040006;28;20106;-71
2023/03/09 09:31:19;;;;;;;0.40;0.22;;;;;;;6.00;83.22;100830.47;5046390;27;20136;-71
2023/03/09 09:33:48;;;;;;;0.00;0.00;;;;;;;6.00;82.50;100825.34;5048795;28;20545;-71
2023/03/09 09:36:19;;;;;;;0.00;0.00;;;;;;;6.00;83.66;100827.00;5050961;28;20045;-71
2023/03/09 09:38:48;;;;;;;0.00;0.00;;;;;;;6.00;82.09;100825.34;5047714;28;20047;-71
2023/03/09 09:41:21;;;;;;;0.03;0.00;;;;;;;6.05;82.08;100818.75;5049887;28;20554;-71
2023/03/09 09:43:52;;;;;;;0.00;0.00;;;;;;;6.07;81.23;100812.00;5050439;28;20052;-71
2023/03/09 09:46:22;;;;;;;0.10;0.08;;;;;;;6.11;80.87;100812.13;5053374;28;20045;-71
2023/03/09 09:48:51;;;;;;;0.40;0.17;;;;;;;6.13;81.27;100807.94;5050364;28;20921;-71
2023/03/09 09:51:45;;;;;;;0.03;0.03;;;;;;;6.08;76.83;100807.72;5054189;28;20053;-71
2023/03/09 09:54:21;;;;;;;0.00;0.00;;;;;;;6.07;77.72;100811.13;5047944;28;20068;-71
2023/03/09 09:56:54;;;;;;;0.10;0.00;;;;;;;6.05;76.77;100812.72;5045105;28;20102;-71
2023/03/09 09:59:26;;;;;;;;;;;;;;;6.03;75.07;100797.22;5047718;28;20056;-71
2023/03/09 10:02:00;;;;;;;0.67;0.20;;;;;;;6.04;76.96;100796.41;5049208;28;19932;-72
2023/03/09 10:04:33;;;;;;;0.08;0.08;;;;;;;6.06;76.54;100799.94;5044456;28;20057;-71
2023/03/09 10:07:12;;;;;;;0.32;0.10;;;;;;;6.08;78.96;100797.44;5046888;28;20049;-71
2023/03/09 10:09:44;;;;;;;0.00;0.00;;;;;;;6.11;77.43;100786.44;5048378;28;20045;-71
2023/03/09 10:12:17;;;;;;;0.00;0.00;;;;;;;6.13;77.18;100774.56;5048566;28;20056;-71
2023/03/09 10:14:52;;;;;;;0.40;0.10;;;;;;;6.13;74.71;100766.84;5045264;28;20134;-70
2023/03/09 10:17:27;;;;;;;0.10;0.10;;;;;;;6.16;76.42;100769.53;5047324;28;20049;-70
2023/03/09 10:19:59;;;;;;;0.00;0.00;;;;;;;6.19;77.74;100780.00;5043074;28;20049;-70
2023/03/09 10:22:28;;;;;;;1.95;0.05;;;;;;;6.10;73.95;100764.13;5045915;28;20113;-70
2023/03/09 10:24:57;;;;;;;0.00;0.00;;;;;;;6.18;74.40;100773.06;5049065;28;20095;-70
2023/03/09 10:27:37;;;;;;;0.00;0.00;;;;;;;6.19;76.49;100770.59;5054726;28;20045;-70
2023/03/09 10:30:17;;;;;;;0.20;0.00;;;;;;;6.20;74.38;100750.91;5046968;27;20055;-70
2023/03/09 10:32:53;;;;;;;0.08;0.08;;;;;;;6.25;75.96;100755.47;5047742;28;20052;-71
2023/03/09 10:35:27;;;;;;;1.00;0.10;;;;;;;6.27;74.12;100752.94;5047086;28;20045;-71
2023/03/09 10:37:56;;;;;;;0.00;0.00;;;;;;;6.26;74.18;100736.66;5046379;28;20064;-70
2023/03/09 10:40:29;;;;;;;0.55;0.13;;;;;;;6.28;77.55;100734.16;5047288;28;20490;-70
2023/03/09 10:43:00;;;;;;;0.35;0.20;;;;;;;6.27;78.12;100740.97;5048037;28;20064;-70
2023/03/09 10:45:30;;;;;;;0.10;0.10;;;;;;;6.19;71.62;100713.19;5050956;28;20250;-70
2023/03/09 10:48:02;;;;;;;0.63;0.10;;;;;;;6.27;73.68;100725.56;5049346;28;20054;-70
2023/03/09 10:50:32;;;;;;;0.13;0.00;;;;;;;6.30;72.47;100722.28;5047474;28;20045;-71
2023/03/09 10:53:24;;;;;;;0.00;0.00;;;;;;;6.28;70.92;100709.34;5047412;28;20625;-70
2023/03/09 10:55:54;;;;;;;0.00;0.00;;;;;;;6.33;72.01;100712.13;5043823;28;20111;-70
2023/03/09 10:58:24;;;;;;;0.00;0.00;;;;;;;6.34;73.75;100713.88;5044131;28;20045;-70
2023/03/09 11:00:57;;;;;;;0.57;0.10;;;;;;;6.36;71.82;100719.97;5047132;28;20052;-71
2023/03/09 11:03:31;;;;;;;0.00;0.00;;;;;;;6.39;71.35;100722.69;5045472;28;20494;-70
2023/03/09 11:06:24;;;;;;;0.00;0.00;;;;;;;6.41;71.72;100712.47;5049817;28;20113;-70
2023/03/09 11:08:59;;;;;;;0.22;0.08;;;;;;;6.43;69.94;100713.41;5044015;28;20052;-71
2023/03/09 11:11:28;;;;;;;0.15;0.10;;;;;;;6.47;72.29;100703.34;5047793;28;20111;-70
2023/03/09 11:13:59;;;;;;;0.00;0.00;;;;;;;6.43;71.92;100701.44;5047204;28;20114;-71
2023/03/09 11:16:31;;;;;;;0.25;0.10;;;;;;;6.39;71.70;100691.84;5050560;28;20049;-70
2023/03/09 11:19:14;;;;;;;0.00;0.00;;;;;;;6.36;69.47;100676.28;5050160;28;20041;-71
2023/03/09 11:21:44;;;;;;;;;;;;;;;6.36;65.75;100672.84;5044700;28;20045;-70
2023/03/09 11:24:16;;;;;;;0.30;0.22;;;;;;;6.39;65.59;100667.81;5048860;28;19940;-70
2023/03/09 11:26:48;;;;;;;0.10;0.08;;;;;;;6.42;68.92;100670.56;5048560;28;20553;-70
2023/03/09 11:29:25;;;;;;;0.05;0.03;;;;;;;6.43;69.76;100657.75;5042506;28;20575;-70
2023/03/09 11:31:54;;;;;;;0.28;0.00;;;;;;;6.46;66.09;100647.63;5048140;27;20510;-70
2023/03/09 11:34:28;;;;;;;0.77;0.20;;;;;;;6.49;68.94;100642.59;5043192;28;21055;-70
2023/03/09 11:37:02;;;;;;;0.00;0.00;;;;;;;6.48;66.39;100630.59;5049655;28;20053;-69
2023/03/09 11:39:35;;;;;;;0.10;0.10;;;;;;;6.46;63.51;100624.50;5047621;28;20037;-70
2023/03/09 11:42:07;;;;;;;0.22;0.15;;;;;;;6.50;64.26;100630.63;5044108;28;20537;-70
2023/03/09 11:44:47;;;;;;;0.10;0.10;;;;;;;6.53;65.95;100611.88;5049308;28;20064;-70
2023/03/09 11:47:26;;;;;;;0.35;0.15;;;;;;;6.55;69.70;100605.13;5045808;28;20045;-71
2023/03/09 11:49:58;;;;;;;0.63;0.13;;;;;;;6.51;63.23;100609.28;5046308;28;20041;-71